FDX1617 KIAH-KIND
Flight info
| Callsign | FDX1617 |
|---|---|
| Flight time | 1h 49m |
| Altitude | 41000 |
| Route | INDIE8 TPAKK LIT J131 PXV RACYR6 |
| Aircraft | MD11/H-SDE1E2E3FGHIJ2J3J4J5M1RWXY/LB1D1 |
Departure
| Time | 2026-05-04 19:18 |
|---|---|
| Airport | George Bush Intercontinental Airport (KIAH) |
Arrival
| Time | 2026-05-04 21:08 |
|---|---|
| Airport | Indianapolis International Airport (KIND) |
| Time | Latitude | Longitude | Altitude | Speed | Heading |
|---|---|---|---|---|---|
| 2026-05-04 18:57 | 29.97839 | -95.34582 | 115 ft | 0 kts | 360° |
| 2026-05-04 19:06 | 29.97834 | -95.34582 | 122 ft | 3 kts | 359° |
| 2026-05-04 19:06 | 29.97808 | -95.34580 | 110 ft | 4 kts | 344° |
| 2026-05-04 19:06 | 29.97784 | -95.34569 | 112 ft | 4 kts | 321° |
| 2026-05-04 19:06 | 29.97768 | -95.34549 | 110 ft | 4 kts | 288° |
| 2026-05-04 19:07 | 29.97765 | -95.34531 | 110 ft | 0 kts | 269° |
| 2026-05-04 19:09 | 29.97765 | -95.34539 | 111 ft | 4 kts | 270° |
| 2026-05-04 19:10 | 29.97764 | -95.34594 | 111 ft | 7 kts | 269° |
| 2026-05-04 19:10 | 29.97759 | -95.34646 | 113 ft | 6 kts | 253° |
| 2026-05-04 19:10 | 29.97742 | -95.34684 | 111 ft | 5 kts | 239° |
| 2026-05-04 19:10 | 29.97715 | -95.34730 | 112 ft | 10 kts | 237° |
| 2026-05-04 19:11 | 29.97713 | -95.34765 | 112 ft | 4 kts | 292° |
| 2026-05-04 19:11 | 29.97761 | -95.34810 | 111 ft | 14 kts | 327° |
| 2026-05-04 19:11 | 29.97857 | -95.34868 | 111 ft | 15 kts | 333° |
| 2026-05-04 19:11 | 29.97942 | -95.34925 | 113 ft | 13 kts | 331° |
| 2026-05-04 19:12 | 29.98021 | -95.34974 | 111 ft | 12 kts | 331° |
| 2026-05-04 19:12 | 29.98156 | -95.35052 | 112 ft | 10 kts | 330° |
| 2026-05-04 19:12 | 29.98211 | -95.35089 | 112 ft | 9 kts | 329° |
| 2026-05-04 19:13 | 29.98275 | -95.35132 | 111 ft | 11 kts | 330° |
| 2026-05-04 19:13 | 29.98339 | -95.35174 | 112 ft | 12 kts | 331° |
| 2026-05-04 19:13 | 29.98418 | -95.35225 | 111 ft | 13 kts | 331° |
| 2026-05-04 19:13 | 29.98508 | -95.35281 | 113 ft | 16 kts | 332° |
| 2026-05-04 19:14 | 29.98605 | -95.35340 | 113 ft | 15 kts | 332° |
| 2026-05-04 19:14 | 29.98694 | -95.35394 | 113 ft | 14 kts | 332° |
| 2026-05-04 19:14 | 29.98773 | -95.35442 | 112 ft | 12 kts | 331° |
| 2026-05-04 19:14 | 29.98845 | -95.35490 | 113 ft | 11 kts | 329° |
| 2026-05-04 19:15 | 29.98877 | -95.35542 | 111 ft | 6 kts | 272° |
| 2026-05-04 19:15 | 29.98859 | -95.35609 | 113 ft | 10 kts | 246° |
| 2026-05-04 19:15 | 29.98828 | -95.35678 | 113 ft | 7 kts | 242° |
| 2026-05-04 19:15 | 29.98826 | -95.35682 | 113 ft | 0 kts | 242° |
| 2026-05-04 19:16 | 29.98812 | -95.35711 | 113 ft | 7 kts | 241° |
| 2026-05-04 19:16 | 29.98773 | -95.35757 | 114 ft | 6 kts | 198° |
| 2026-05-04 19:17 | 29.98736 | -95.35753 | 114 ft | 4 kts | 163° |
| 2026-05-04 19:17 | 29.98715 | -95.35741 | 114 ft | 0 kts | 153° |
| 2026-05-04 19:18 | 29.98698 | -95.35731 | 112 ft | 13 kts | 152° |
| 2026-05-04 19:18 | 29.98316 | -95.35498 | 111 ft | 121 kts | 152° |
| 2026-05-04 19:18 | 29.97304 | -95.34866 | 466 ft | 188 kts | 153° |
| 2026-05-04 19:18 | 29.96124 | -95.34149 | 1728 ft | 192 kts | 156° |
| 2026-05-04 19:19 | 29.94922 | -95.33513 | 3207 ft | 189 kts | 165° |
| 2026-05-04 19:19 | 29.93586 | -95.33392 | 4283 ft | 206 kts | 190° |
| 2026-05-04 19:19 | 29.92265 | -95.34109 | 5010 ft | 222 kts | 219° |
| 2026-05-04 19:19 | 29.91323 | -95.35656 | 5182 ft | 253 kts | 248° |
| 2026-05-04 19:20 | 29.91166 | -95.37720 | 5640 ft | 266 kts | 277° |
| 2026-05-04 19:20 | 29.91937 | -95.39655 | 6685 ft | 272 kts | 307° |
| 2026-05-04 19:20 | 29.93450 | -95.40980 | 8068 ft | 277 kts | 333° |
| 2026-05-04 19:20 | 29.95337 | -95.41537 | 9370 ft | 284 kts | 349° |
| 2026-05-04 19:21 | 29.97325 | -95.41784 | 10388 ft | 298 kts | 351° |
| 2026-05-04 19:21 | 29.99537 | -95.41807 | 10529 ft | 342 kts | 6° |
| 2026-05-04 19:21 | 30.01870 | -95.40834 | 11140 ft | 369 kts | 26° |
| 2026-05-04 19:21 | 30.04051 | -95.39201 | 12153 ft | 378 kts | 31° |
| 2026-05-04 19:22 | 30.06248 | -95.37473 | 13176 ft | 384 kts | 29° |
| 2026-05-04 19:22 | 30.08519 | -95.35826 | 14157 ft | 388 kts | 26° |
| 2026-05-04 19:22 | 30.10885 | -95.34265 | 14811 ft | 394 kts | 23° |
| 2026-05-04 19:22 | 30.13303 | -95.32787 | 15171 ft | 394 kts | 22° |
| 2026-05-04 19:23 | 30.15755 | -95.31368 | 16025 ft | 394 kts | 21° |
| 2026-05-04 19:23 | 30.18229 | -95.29973 | 16882 ft | 399 kts | 20° |
| 2026-05-04 19:23 | 30.20746 | -95.28570 | 17717 ft | 404 kts | 20° |
| 2026-05-04 19:23 | 30.23278 | -95.27164 | 18497 ft | 409 kts | 20° |
| 2026-05-04 19:24 | 30.25852 | -95.25736 | 19204 ft | 413 kts | 19° |
| 2026-05-04 19:24 | 30.28453 | -95.24290 | 19898 ft | 417 kts | 19° |
| 2026-05-04 19:24 | 30.31075 | -95.22831 | 20607 ft | 420 kts | 19° |
| 2026-05-04 19:24 | 30.33722 | -95.21356 | 21296 ft | 424 kts | 19° |
| 2026-05-04 19:25 | 30.36390 | -95.19869 | 22002 ft | 428 kts | 18° |
| 2026-05-04 19:25 | 30.39088 | -95.18364 | 22719 ft | 432 kts | 18° |
| 2026-05-04 19:25 | 30.41805 | -95.16847 | 23441 ft | 436 kts | 18° |
| 2026-05-04 19:25 | 30.44557 | -95.15310 | 24081 ft | 441 kts | 18° |
| 2026-05-04 19:26 | 30.47328 | -95.13761 | 24725 ft | 444 kts | 18° |
| 2026-05-04 19:26 | 30.50125 | -95.12196 | 25400 ft | 448 kts | 17° |
| 2026-05-04 19:26 | 30.52938 | -95.10621 | 26066 ft | 452 kts | 17° |
| 2026-05-04 19:26 | 30.55781 | -95.09029 | 26714 ft | 455 kts | 16° |
| 2026-05-04 19:27 | 30.58648 | -95.07422 | 27359 ft | 459 kts | 16° |
| 2026-05-04 19:27 | 30.61538 | -95.05802 | 28011 ft | 463 kts | 16° |
| 2026-05-04 19:27 | 30.64435 | -95.04094 | 28641 ft | 470 kts | 18° |
| 2026-05-04 19:27 | 30.67331 | -95.02274 | 29262 ft | 476 kts | 18° |
| 2026-05-04 19:28 | 30.70236 | -95.00392 | 29870 ft | 481 kts | 18° |
| 2026-05-04 19:28 | 30.73170 | -94.98472 | 30371 ft | 485 kts | 18° |
| 2026-05-04 19:28 | 30.76115 | -94.96543 | 30832 ft | 488 kts | 18° |
| 2026-05-04 19:28 | 30.79087 | -94.94601 | 31317 ft | 490 kts | 18° |
| 2026-05-04 19:29 | 30.82052 | -94.92666 | 31919 ft | 487 kts | 18° |
| 2026-05-04 19:29 | 30.85002 | -94.90743 | 32523 ft | 485 kts | 18° |
| 2026-05-04 19:29 | 30.87942 | -94.88829 | 33136 ft | 483 kts | 17° |
| 2026-05-04 19:29 | 30.90867 | -94.86927 | 33739 ft | 480 kts | 17° |
| 2026-05-04 19:30 | 30.93772 | -94.85039 | 34269 ft | 478 kts | 17° |
| 2026-05-04 19:30 | 30.96672 | -94.83154 | 34738 ft | 476 kts | 17° |
| 2026-05-04 19:30 | 30.99561 | -94.81276 | 35199 ft | 474 kts | 17° |
| 2026-05-04 19:30 | 31.02440 | -94.79404 | 35643 ft | 473 kts | 17° |
| 2026-05-04 19:31 | 31.05307 | -94.77538 | 36000 ft | 472 kts | 17° |
| 2026-05-04 19:31 | 31.08170 | -94.75672 | 36368 ft | 471 kts | 17° |
| 2026-05-04 19:31 | 31.11028 | -94.73809 | 36745 ft | 469 kts | 17° |
| 2026-05-04 19:31 | 31.13879 | -94.71949 | 36964 ft | 469 kts | 17° |
| 2026-05-04 19:32 | 31.16725 | -94.70090 | 37039 ft | 469 kts | 17° |
| 2026-05-04 19:32 | 31.22407 | -94.66379 | 37018 ft | 467 kts | 17° |
| 2026-05-04 19:33 | 31.28084 | -94.62677 | 37012 ft | 467 kts | 17° |
| 2026-05-04 19:33 | 31.33764 | -94.58971 | 37010 ft | 467 kts | 17° |
| 2026-05-04 19:34 | 31.39444 | -94.55259 | 37021 ft | 467 kts | 17° |
| 2026-05-04 19:34 | 31.45105 | -94.51552 | 37046 ft | 466 kts | 16° |
| 2026-05-04 19:35 | 31.50759 | -94.47779 | 37009 ft | 469 kts | 17° |
| 2026-05-04 19:35 | 31.56373 | -94.43877 | 37007 ft | 470 kts | 18° |
| 2026-05-04 19:36 | 31.61945 | -94.39978 | 37013 ft | 470 kts | 18° |
| 2026-05-04 19:36 | 31.67554 | -94.36058 | 37010 ft | 470 kts | 18° |
| 2026-05-04 19:37 | 31.73172 | -94.32135 | 37047 ft | 470 kts | 18° |
| 2026-05-04 19:37 | 31.78789 | -94.28209 | 37007 ft | 470 kts | 18° |
| 2026-05-04 19:38 | 31.84408 | -94.24275 | 37008 ft | 470 kts | 18° |
| 2026-05-04 19:38 | 31.90022 | -94.20339 | 37003 ft | 470 kts | 18° |
| 2026-05-04 19:39 | 31.95613 | -94.16411 | 37010 ft | 469 kts | 17° |
| 2026-05-04 19:39 | 32.00270 | -94.13137 | 37004 ft | 469 kts | 17° |
| 2026-05-04 19:40 | 32.05871 | -94.09194 | 37007 ft | 469 kts | 17° |
| 2026-05-04 19:40 | 32.11470 | -94.05247 | 37004 ft | 469 kts | 17° |
| 2026-05-04 19:41 | 32.17066 | -94.01297 | 37001 ft | 469 kts | 17° |
| 2026-05-04 19:41 | 32.22664 | -93.97329 | 37000 ft | 469 kts | 17° |
| 2026-05-04 19:42 | 32.28253 | -93.93355 | 37005 ft | 469 kts | 17° |
| 2026-05-04 19:42 | 32.33851 | -93.89379 | 37008 ft | 469 kts | 17° |
| 2026-05-04 19:43 | 32.39435 | -93.85413 | 37005 ft | 469 kts | 17° |
| 2026-05-04 19:43 | 32.45027 | -93.81437 | 37008 ft | 469 kts | 17° |
| 2026-05-04 19:44 | 32.50605 | -93.77462 | 37010 ft | 467 kts | 17° |
| 2026-05-04 19:44 | 32.56164 | -93.73495 | 37017 ft | 466 kts | 17° |
| 2026-05-04 19:45 | 32.61709 | -93.69533 | 37024 ft | 464 kts | 17° |
| 2026-05-04 19:45 | 32.67238 | -93.65579 | 37012 ft | 464 kts | 17° |
| 2026-05-04 19:46 | 32.72768 | -93.61619 | 37002 ft | 464 kts | 17° |
| 2026-05-04 19:46 | 32.78296 | -93.57654 | 36999 ft | 464 kts | 17° |
| 2026-05-04 19:47 | 32.83822 | -93.53683 | 36995 ft | 464 kts | 17° |
| 2026-05-04 19:47 | 32.89336 | -93.49712 | 36999 ft | 463 kts | 17° |
| 2026-05-04 19:48 | 32.94838 | -93.45734 | 36987 ft | 463 kts | 17° |
| 2026-05-04 19:48 | 33.00341 | -93.41779 | 36985 ft | 461 kts | 16° |
| 2026-05-04 19:49 | 33.05878 | -93.37948 | 36979 ft | 460 kts | 15° |
| 2026-05-04 19:49 | 33.11385 | -93.34175 | 37023 ft | 460 kts | 15° |
| 2026-05-04 19:50 | 33.16923 | -93.30367 | 36988 ft | 459 kts | 15° |
| 2026-05-04 19:50 | 33.22449 | -93.26557 | 36979 ft | 459 kts | 15° |
| 2026-05-04 19:51 | 33.27974 | -93.22740 | 36984 ft | 459 kts | 15° |
| 2026-05-04 19:51 | 33.33504 | -93.18914 | 36982 ft | 459 kts | 15° |
| 2026-05-04 19:52 | 33.39026 | -93.15086 | 36979 ft | 459 kts | 15° |
| 2026-05-04 19:52 | 33.44556 | -93.11249 | 36974 ft | 459 kts | 15° |
| 2026-05-04 19:53 | 33.50085 | -93.07406 | 36969 ft | 459 kts | 15° |
| 2026-05-04 19:53 | 33.55611 | -93.03559 | 36982 ft | 459 kts | 15° |
| 2026-05-04 19:54 | 33.61104 | -92.99727 | 36973 ft | 458 kts | 15° |
| 2026-05-04 19:54 | 33.66613 | -92.95882 | 36978 ft | 458 kts | 15° |
| 2026-05-04 19:55 | 33.72125 | -92.92024 | 36966 ft | 458 kts | 15° |
| 2026-05-04 19:55 | 33.77627 | -92.88154 | 36966 ft | 458 kts | 15° |
| 2026-05-04 19:56 | 33.83126 | -92.84288 | 36967 ft | 458 kts | 15° |
| 2026-05-04 19:56 | 33.88644 | -92.80411 | 36966 ft | 458 kts | 15° |
| 2026-05-04 19:57 | 33.94153 | -92.76535 | 36987 ft | 459 kts | 15° |
| 2026-05-04 19:57 | 33.99657 | -92.72658 | 36962 ft | 459 kts | 15° |
| 2026-05-04 19:58 | 34.05166 | -92.68771 | 36957 ft | 459 kts | 15° |
| 2026-05-04 19:58 | 34.10668 | -92.64882 | 36956 ft | 458 kts | 16° |
| 2026-05-04 19:59 | 34.16163 | -92.60993 | 36952 ft | 458 kts | 16° |
| 2026-05-04 19:59 | 34.21657 | -92.57099 | 36962 ft | 458 kts | 16° |
| 2026-05-04 20:00 | 34.27154 | -92.53197 | 36952 ft | 458 kts | 16° |
| 2026-05-04 20:00 | 34.32612 | -92.49316 | 36949 ft | 458 kts | 16° |
| 2026-05-04 20:01 | 34.38105 | -92.45405 | 36949 ft | 458 kts | 16° |
| 2026-05-04 20:01 | 34.43597 | -92.41485 | 36944 ft | 459 kts | 16° |
| 2026-05-04 20:02 | 34.49085 | -92.37544 | 36947 ft | 458 kts | 16° |
| 2026-05-04 20:02 | 34.54565 | -92.33613 | 36940 ft | 458 kts | 16° |
| 2026-05-04 20:03 | 34.60052 | -92.29681 | 36932 ft | 458 kts | 16° |
| 2026-05-04 20:03 | 34.65527 | -92.25751 | 36938 ft | 456 kts | 16° |
| 2026-05-04 20:04 | 34.70988 | -92.21825 | 36933 ft | 456 kts | 16° |
| 2026-05-04 20:04 | 34.76451 | -92.17894 | 36935 ft | 456 kts | 16° |
| 2026-05-04 20:05 | 34.81906 | -92.13924 | 36923 ft | 461 kts | 19° |
| 2026-05-04 20:05 | 34.84503 | -92.11504 | 36939 ft | 480 kts | 28° |
| 2026-05-04 20:05 | 34.86887 | -92.08592 | 36936 ft | 492 kts | 34° |
| 2026-05-04 20:06 | 34.91365 | -92.02178 | 36933 ft | 498 kts | 37° |
| 2026-05-04 20:06 | 34.95814 | -91.95717 | 36910 ft | 497 kts | 36° |
| 2026-05-04 20:07 | 35.00336 | -91.89364 | 36936 ft | 496 kts | 36° |
| 2026-05-04 20:07 | 35.04893 | -91.83046 | 36923 ft | 496 kts | 36° |
| 2026-05-04 20:08 | 35.09447 | -91.76728 | 36919 ft | 496 kts | 36° |
| 2026-05-04 20:08 | 35.13997 | -91.70395 | 36913 ft | 496 kts | 36° |
| 2026-05-04 20:09 | 35.18531 | -91.64068 | 36923 ft | 496 kts | 36° |
| 2026-05-04 20:09 | 35.23078 | -91.57712 | 36927 ft | 496 kts | 36° |
| 2026-05-04 20:10 | 35.27623 | -91.51349 | 36939 ft | 497 kts | 37° |
| 2026-05-04 20:10 | 35.32171 | -91.44967 | 36929 ft | 498 kts | 37° |
| 2026-05-04 20:11 | 35.36687 | -91.38617 | 36925 ft | 497 kts | 37° |
| 2026-05-04 20:11 | 35.41221 | -91.32206 | 36933 ft | 498 kts | 37° |
| 2026-05-04 20:12 | 35.45747 | -91.25784 | 36928 ft | 498 kts | 37° |
| 2026-05-04 20:12 | 35.50282 | -91.19363 | 36968 ft | 498 kts | 38° |
| 2026-05-04 20:13 | 35.54820 | -91.12937 | 36934 ft | 498 kts | 38° |
| 2026-05-04 20:13 | 35.59345 | -91.06514 | 36927 ft | 497 kts | 38° |
| 2026-05-04 20:14 | 35.63852 | -91.00109 | 36908 ft | 497 kts | 38° |
| 2026-05-04 20:14 | 35.68364 | -90.93683 | 36920 ft | 497 kts | 38° |
| 2026-05-04 20:15 | 35.72875 | -90.87246 | 36902 ft | 497 kts | 38° |
| 2026-05-04 20:15 | 35.77382 | -90.80803 | 36919 ft | 497 kts | 39° |
| 2026-05-04 20:16 | 35.81888 | -90.74349 | 36923 ft | 497 kts | 39° |
| 2026-05-04 20:16 | 35.86386 | -90.67892 | 36895 ft | 496 kts | 39° |
| 2026-05-04 20:17 | 35.90881 | -90.61428 | 36895 ft | 496 kts | 39° |
| 2026-05-04 20:17 | 35.95364 | -90.54947 | 36889 ft | 497 kts | 40° |
| 2026-05-04 20:18 | 35.99835 | -90.48454 | 36889 ft | 496 kts | 40° |
| 2026-05-04 20:18 | 36.04311 | -90.41968 | 36889 ft | 496 kts | 40° |
| 2026-05-04 20:19 | 36.08785 | -90.35486 | 36889 ft | 495 kts | 40° |
| 2026-05-04 20:19 | 36.13249 | -90.29005 | 36881 ft | 494 kts | 40° |
| 2026-05-04 20:20 | 36.17702 | -90.22528 | 36878 ft | 494 kts | 40° |
| 2026-05-04 20:20 | 36.22123 | -90.16086 | 36879 ft | 494 kts | 40° |
| 2026-05-04 20:21 | 36.26578 | -90.09621 | 36882 ft | 493 kts | 40° |
| 2026-05-04 20:21 | 36.33452 | -90.00201 | 36879 ft | 490 kts | 39° |
| 2026-05-04 20:22 | 36.38096 | -89.93930 | 36879 ft | 490 kts | 40° |
| 2026-05-04 20:22 | 36.42665 | -89.87728 | 36874 ft | 490 kts | 40° |
| 2026-05-04 20:23 | 36.47255 | -89.81473 | 36870 ft | 490 kts | 40° |
| 2026-05-04 20:23 | 36.51823 | -89.75235 | 36886 ft | 490 kts | 40° |
| 2026-05-04 20:24 | 36.56408 | -89.68961 | 36875 ft | 490 kts | 40° |
| 2026-05-04 20:24 | 36.60989 | -89.62680 | 36860 ft | 490 kts | 40° |
| 2026-05-04 20:25 | 36.65560 | -89.56368 | 36851 ft | 491 kts | 41° |
| 2026-05-04 20:25 | 36.69349 | -89.51110 | 36852 ft | 491 kts | 41° |
| 2026-05-04 20:26 | 36.73907 | -89.44787 | 36847 ft | 491 kts | 40° |
| 2026-05-04 20:26 | 36.78472 | -89.38451 | 36851 ft | 491 kts | 41° |
| 2026-05-04 20:27 | 36.83029 | -89.32116 | 36850 ft | 491 kts | 41° |
| 2026-05-04 20:27 | 36.87592 | -89.25760 | 36859 ft | 491 kts | 41° |
| 2026-05-04 20:28 | 36.92143 | -89.19407 | 36862 ft | 491 kts | 41° |
| 2026-05-04 20:28 | 36.96696 | -89.13040 | 36860 ft | 491 kts | 41° |
| 2026-05-04 20:29 | 37.01244 | -89.06668 | 36865 ft | 491 kts | 42° |
| 2026-05-04 20:29 | 37.05785 | -89.00292 | 36858 ft | 491 kts | 42° |
| 2026-05-04 20:30 | 37.10293 | -88.93950 | 36859 ft | 491 kts | 42° |
| 2026-05-04 20:30 | 37.14829 | -88.87557 | 36858 ft | 491 kts | 42° |
| 2026-05-04 20:31 | 37.19354 | -88.81152 | 36861 ft | 491 kts | 43° |
| 2026-05-04 20:31 | 37.23869 | -88.74722 | 36863 ft | 491 kts | 43° |
| 2026-05-04 20:32 | 37.28396 | -88.68287 | 36842 ft | 491 kts | 43° |
| 2026-05-04 20:32 | 37.32919 | -88.61859 | 36845 ft | 491 kts | 43° |
| 2026-05-04 20:33 | 37.37446 | -88.55416 | 36846 ft | 491 kts | 43° |
| 2026-05-04 20:33 | 37.41966 | -88.48971 | 36847 ft | 491 kts | 43° |
| 2026-05-04 20:34 | 37.46464 | -88.42546 | 36856 ft | 493 kts | 43° |
| 2026-05-04 20:34 | 37.50992 | -88.36062 | 36846 ft | 493 kts | 44° |
| 2026-05-04 20:35 | 37.55517 | -88.29569 | 36842 ft | 493 kts | 44° |
| 2026-05-04 20:35 | 37.60039 | -88.23067 | 36843 ft | 493 kts | 44° |
| 2026-05-04 20:36 | 37.64560 | -88.16555 | 36842 ft | 493 kts | 44° |
| 2026-05-04 20:36 | 37.69078 | -88.10033 | 36853 ft | 493 kts | 44° |
| 2026-05-04 20:37 | 37.73583 | -88.03509 | 36850 ft | 492 kts | 44° |
| 2026-05-04 20:37 | 37.78066 | -87.96965 | 36848 ft | 492 kts | 44° |
| 2026-05-04 20:38 | 37.82552 | -87.90429 | 36854 ft | 492 kts | 44° |
| 2026-05-04 20:38 | 37.87027 | -87.83915 | 36855 ft | 492 kts | 44° |
| 2026-05-04 20:39 | 37.91654 | -87.77574 | 36854 ft | 486 kts | 36° |
| 2026-05-04 20:39 | 37.97212 | -87.72917 | 36855 ft | 476 kts | 23° |
| 2026-05-04 20:40 | 38.03053 | -87.69000 | 36860 ft | 475 kts | 23° |
| 2026-05-04 20:40 | 38.08880 | -87.64985 | 36858 ft | 477 kts | 24° |
| 2026-05-04 20:41 | 38.14656 | -87.60845 | 36856 ft | 477 kts | 25° |
| 2026-05-04 20:41 | 38.20419 | -87.56660 | 36853 ft | 477 kts | 25° |
| 2026-05-04 20:42 | 38.26185 | -87.52463 | 36841 ft | 477 kts | 25° |
| 2026-05-04 20:42 | 38.31912 | -87.48293 | 36833 ft | 477 kts | 25° |
| 2026-05-04 20:43 | 38.37674 | -87.44092 | 36819 ft | 477 kts | 25° |
| 2026-05-04 20:43 | 38.43434 | -87.39885 | 36826 ft | 477 kts | 25° |
| 2026-05-04 20:44 | 38.49190 | -87.35673 | 36821 ft | 477 kts | 25° |
| 2026-05-04 20:44 | 38.54946 | -87.31453 | 36824 ft | 478 kts | 25° |
| 2026-05-04 20:45 | 38.60728 | -87.27207 | 36805 ft | 479 kts | 25° |
| 2026-05-04 20:45 | 38.66511 | -87.22941 | 36489 ft | 480 kts | 26° |
| 2026-05-04 20:46 | 38.69406 | -87.20795 | 36079 ft | 481 kts | 26° |
| 2026-05-04 20:46 | 38.72303 | -87.18648 | 35593 ft | 482 kts | 26° |
| 2026-05-04 20:46 | 38.75200 | -87.16502 | 35029 ft | 482 kts | 25° |
| 2026-05-04 20:46 | 38.78107 | -87.14350 | 34458 ft | 483 kts | 25° |
| 2026-05-04 20:47 | 38.81018 | -87.12196 | 33898 ft | 483 kts | 25° |
| 2026-05-04 20:47 | 38.83929 | -87.10040 | 33269 ft | 483 kts | 25° |
| 2026-05-04 20:47 | 38.86817 | -87.07896 | 32715 ft | 477 kts | 26° |
| 2026-05-04 20:47 | 38.89670 | -87.05776 | 32129 ft | 471 kts | 25° |
| 2026-05-04 20:48 | 38.92490 | -87.03679 | 31575 ft | 467 kts | 25° |
| 2026-05-04 20:48 | 38.95295 | -87.01593 | 31005 ft | 463 kts | 25° |
| 2026-05-04 20:48 | 38.98069 | -86.99529 | 30427 ft | 459 kts | 25° |
| 2026-05-04 20:48 | 39.00827 | -86.97475 | 29824 ft | 455 kts | 25° |
| 2026-05-04 20:49 | 39.03555 | -86.95441 | 29170 ft | 451 kts | 25° |
| 2026-05-04 20:49 | 39.06258 | -86.93426 | 28581 ft | 447 kts | 25° |
| 2026-05-04 20:49 | 39.08936 | -86.91427 | 28023 ft | 443 kts | 25° |
| 2026-05-04 20:49 | 39.11599 | -86.89437 | 27454 ft | 441 kts | 25° |
| 2026-05-04 20:50 | 39.14200 | -86.87490 | 26858 ft | 437 kts | 25° |
| 2026-05-04 20:50 | 39.16826 | -86.85526 | 26266 ft | 434 kts | 25° |
| 2026-05-04 20:50 | 39.19429 | -86.83581 | 25678 ft | 431 kts | 25° |
| 2026-05-04 20:50 | 39.22020 | -86.81645 | 25093 ft | 429 kts | 25° |
| 2026-05-04 20:51 | 39.24590 | -86.79723 | 24511 ft | 426 kts | 24° |
| 2026-05-04 20:51 | 39.27145 | -86.77809 | 23902 ft | 423 kts | 24° |
| 2026-05-04 20:51 | 39.29682 | -86.75906 | 23269 ft | 420 kts | 24° |
| 2026-05-04 20:51 | 39.32202 | -86.74016 | 22615 ft | 417 kts | 24° |
| 2026-05-04 20:52 | 39.34705 | -86.72138 | 21982 ft | 415 kts | 24° |
| 2026-05-04 20:52 | 39.37189 | -86.70272 | 21368 ft | 411 kts | 25° |
| 2026-05-04 20:52 | 39.39649 | -86.68423 | 20762 ft | 407 kts | 25° |
| 2026-05-04 20:52 | 39.42089 | -86.66583 | 20187 ft | 404 kts | 25° |
| 2026-05-04 20:53 | 39.44501 | -86.64760 | 19580 ft | 400 kts | 25° |
| 2026-05-04 20:53 | 39.46893 | -86.62948 | 18993 ft | 396 kts | 25° |
| 2026-05-04 20:53 | 39.49266 | -86.61151 | 18424 ft | 393 kts | 25° |
| 2026-05-04 20:53 | 39.51606 | -86.59378 | 17811 ft | 391 kts | 25° |
| 2026-05-04 20:54 | 39.53937 | -86.57610 | 17301 ft | 386 kts | 25° |
| 2026-05-04 20:54 | 39.56251 | -86.55855 | 16755 ft | 383 kts | 25° |
| 2026-05-04 20:54 | 39.58532 | -86.54122 | 16211 ft | 378 kts | 25° |
| 2026-05-04 20:54 | 39.60794 | -86.52404 | 15686 ft | 376 kts | 25° |
| 2026-05-04 20:55 | 39.63050 | -86.50690 | 15158 ft | 375 kts | 25° |
| 2026-05-04 20:55 | 39.65297 | -86.48982 | 14633 ft | 373 kts | 25° |
| 2026-05-04 20:55 | 39.67501 | -86.47305 | 14112 ft | 372 kts | 25° |
| 2026-05-04 20:55 | 39.69731 | -86.45606 | 13584 ft | 371 kts | 25° |
| 2026-05-04 20:56 | 39.71970 | -86.43899 | 12983 ft | 366 kts | 25° |
| 2026-05-04 20:56 | 39.74148 | -86.42235 | 12463 ft | 360 kts | 25° |
| 2026-05-04 20:56 | 39.76291 | -86.40598 | 11951 ft | 355 kts | 25° |
| 2026-05-04 20:56 | 39.78375 | -86.38996 | 11446 ft | 350 kts | 27° |
| 2026-05-04 20:57 | 39.80325 | -86.37145 | 11095 ft | 347 kts | 39° |
| 2026-05-04 20:57 | 39.81840 | -86.34697 | 10975 ft | 349 kts | 57° |
| 2026-05-04 20:57 | 39.83174 | -86.32044 | 10841 ft | 350 kts | 52° |
| 2026-05-04 20:57 | 39.84620 | -86.29504 | 10731 ft | 349 kts | 50° |
| 2026-05-04 20:58 | 39.86069 | -86.27029 | 10578 ft | 336 kts | 50° |
| 2026-05-04 20:58 | 39.87456 | -86.24662 | 10478 ft | 324 kts | 50° |
| 2026-05-04 20:58 | 39.88819 | -86.22343 | 10158 ft | 320 kts | 50° |
| 2026-05-04 20:58 | 39.90174 | -86.20059 | 9735 ft | 315 kts | 50° |
| 2026-05-04 20:59 | 39.91465 | -86.17891 | 9283 ft | 296 kts | 50° |
| 2026-05-04 20:59 | 39.92710 | -86.15792 | 8771 ft | 292 kts | 50° |
| 2026-05-04 20:59 | 39.93943 | -86.13697 | 8300 ft | 290 kts | 50° |
| 2026-05-04 20:59 | 39.95170 | -86.11619 | 7824 ft | 287 kts | 50° |
| 2026-05-04 21:00 | 39.96312 | -86.09546 | 7337 ft | 281 kts | 62° |
| 2026-05-04 21:00 | 39.96819 | -86.07173 | 6886 ft | 266 kts | 93° |
| 2026-05-04 21:00 | 39.96463 | -86.04900 | 6426 ft | 249 kts | 125° |
| 2026-05-04 21:00 | 39.95416 | -86.03272 | 5954 ft | 226 kts | 155° |
| 2026-05-04 21:01 | 39.94068 | -86.02425 | 5476 ft | 205 kts | 180° |
| 2026-05-04 21:01 | 39.92745 | -86.02645 | 5094 ft | 188 kts | 208° |
| 2026-05-04 21:01 | 39.91568 | -86.03371 | 4734 ft | 187 kts | 212° |
| 2026-05-04 21:01 | 39.90524 | -86.04326 | 4373 ft | 182 kts | 224° |
| 2026-05-04 21:02 | 39.89594 | -86.05437 | 3980 ft | 178 kts | 224° |
| 2026-05-04 21:02 | 39.88720 | -86.06518 | 3674 ft | 171 kts | 224° |
| 2026-05-04 21:02 | 39.87958 | -86.07721 | 3664 ft | 176 kts | 243° |
| 2026-05-04 21:02 | 39.87460 | -86.09160 | 3732 ft | 174 kts | 229° |
| 2026-05-04 21:03 | 39.86521 | -86.10120 | 3791 ft | 173 kts | 212° |
| 2026-05-04 21:03 | 39.85481 | -86.10911 | 4000 ft | 173 kts | 213° |
| 2026-05-04 21:03 | 39.84472 | -86.11775 | 4198 ft | 173 kts | 216° |
| 2026-05-04 21:03 | 39.83521 | -86.12727 | 4240 ft | 172 kts | 223° |
| 2026-05-04 21:04 | 39.82715 | -86.13877 | 4090 ft | 172 kts | 231° |
| 2026-05-04 21:04 | 39.82066 | -86.15168 | 3875 ft | 170 kts | 233° |
| 2026-05-04 21:04 | 39.81310 | -86.16350 | 3886 ft | 167 kts | 225° |
| 2026-05-04 21:04 | 39.80501 | -86.17310 | 3768 ft | 153 kts | 222° |
| 2026-05-04 21:05 | 39.79702 | -86.18227 | 3517 ft | 153 kts | 221° |
| 2026-05-04 21:05 | 39.78911 | -86.19130 | 3368 ft | 143 kts | 220° |
| 2026-05-04 21:05 | 39.78213 | -86.19927 | 3118 ft | 128 kts | 221° |
| 2026-05-04 21:05 | 39.77585 | -86.20712 | 2795 ft | 124 kts | 224° |
| 2026-05-04 21:06 | 39.76968 | -86.21489 | 2534 ft | 122 kts | 224° |
| 2026-05-04 21:06 | 39.76375 | -86.22282 | 2281 ft | 123 kts | 225° |
| 2026-05-04 21:06 | 39.75795 | -86.23106 | 2121 ft | 126 kts | 226° |
| 2026-05-04 21:06 | 39.75168 | -86.23905 | 1849 ft | 127 kts | 224° |
| 2026-05-04 21:07 | 39.74555 | -86.24683 | 1660 ft | 127 kts | 224° |
| 2026-05-04 21:07 | 39.73910 | -86.25490 | 1389 ft | 131 kts | 224° |
| 2026-05-04 21:07 | 39.73243 | -86.26347 | 1208 ft | 137 kts | 224° |
| 2026-05-04 21:07 | 39.72558 | -86.27219 | 1012 ft | 137 kts | 223° |
| 2026-05-04 21:08 | 39.71890 | -86.28068 | 809 ft | 133 kts | 222° |
| 2026-05-04 21:08 | 39.71319 | -86.28791 | 792 ft | 87 kts | 224° |
| 2026-05-04 21:08 | 39.71030 | -86.29160 | 788 ft | 30 kts | 225° |
| 2026-05-04 21:08 | 39.70931 | -86.29289 | 787 ft | 19 kts | 225° |
| 2026-05-04 21:09 | 39.70841 | -86.29391 | 788 ft | 13 kts | 207° |
| 2026-05-04 21:09 | 39.70805 | -86.29386 | 789 ft | 2 kts | 152° |
| 2026-05-04 21:09 | 39.70793 | -86.29376 | 790 ft | 6 kts | 146° |
| 2026-05-04 21:09 | 39.70769 | -86.29332 | 791 ft | 5 kts | 103° |
| 2026-05-04 21:10 | 39.70782 | -86.29281 | 790 ft | 6 kts | 58° |
| 2026-05-04 21:10 | 39.70827 | -86.29218 | 789 ft | 11 kts | 44° |
| 2026-05-04 21:10 | 39.70878 | -86.29154 | 790 ft | 9 kts | 44° |
| 2026-05-04 21:10 | 39.70917 | -86.29103 | 791 ft | 8 kts | 44° |
| 2026-05-04 21:11 | 39.70972 | -86.29035 | 791 ft | 12 kts | 44° |
| 2026-05-04 21:11 | 39.71030 | -86.28962 | 792 ft | 10 kts | 45° |
| 2026-05-04 21:11 | 39.71073 | -86.28905 | 794 ft | 7 kts | 45° |
| 2026-05-04 21:11 | 39.71105 | -86.28865 | 794 ft | 6 kts | 44° |
| 2026-05-04 21:12 | 39.71142 | -86.28818 | 794 ft | 10 kts | 44° |
| 2026-05-04 21:12 | 39.71190 | -86.28753 | 794 ft | 9 kts | 56° |
| 2026-05-04 21:12 | 39.71180 | -86.28694 | 794 ft | 9 kts | 122° |
| 2026-05-04 21:12 | 39.71132 | -86.28624 | 794 ft | 10 kts | 139° |
| 2026-05-04 21:13 | 39.71091 | -86.28618 | 794 ft | 5 kts | 199° |
| 2026-05-04 21:13 | 39.71066 | -86.28643 | 795 ft | 1 kts | 231° |
| 2026-05-04 21:13 | 39.71066 | -86.28648 | 794 ft | 1 kts | 252° |
| 2026-05-04 21:13 | 39.71069 | -86.28659 | 794 ft | 2 kts | 288° |
| 2026-05-04 21:14 | 39.71094 | -86.28694 | 794 ft | 5 kts | 314° |
| 2026-05-04 21:14 | 39.71107 | -86.28712 | 794 ft | 1 kts | 314° |